This is the latest recevied weather packets stored in our database for station/object K5GHS-1. If no packets are shown the sender has not sent any weather packets the latest 10 day(s).
| Time | Temp. | Humidity | Pressure | Rain* | Wind** | Luminosity | Snow |
|---|---|---|---|---|---|---|---|
| 1777913501 | 25° C | 49% | 1010.6 hPa | 0 mm | - | 727 W/m² | - |
| 1777912281 | 23.89° C | 51% | 1010.7 hPa | 0 mm | - | 492 W/m² | - |
| 1777910765 | 24.44° C | 52% | 1010.7 hPa | 0 mm | - | 504 W/m² | - |
| 1777908646 | 23.33° C | 55% | 1011.1 hPa | 0 mm | - | 571 W/m² | - |
| 1777908342 | 23.33° C | 55% | 1011.1 hPa | 0 mm | - | 398 W/m² | - |
| 1777906520 | 21.67° C | 59% | 1011.2 hPa | 0 mm | - | 405 W/m² | - |
| 1777905609 | 21.11° C | 61% | 1011 hPa | 0 mm | - | 219 W/m² | - |
| 1777905306 | 21.11° C | 62% | 1011.2 hPa | 0 mm | - | 211 W/m² | - |
| 1777902578 | 20.56° C | 65% | 1011.5 hPa | 0 mm | - | 181 W/m² | - |
| 1777901670 | 18.89° C | 69% | 1011.4 hPa | 0 mm | - | 140 W/m² | - |
| 1777901367 | 18.89° C | 70% | 1011.6 hPa | 0 mm | - | 81 W/m² | - |
| 1777901065 | 18.89° C | 70% | 1011.4 hPa | 0 mm | - | 60 W/m² | - |
| 1777900761 | 19.44° C | 69% | 1011.6 hPa | 0 mm | - | 80 W/m² | - |
| 1777900459 | 18.89° C | 69% | 1011.7 hPa | 0 mm | - | 101 W/m² | - |
| 1777900156 | 18.89° C | 69% | 1011.4 hPa | 0 mm | - | 97 W/m² | - |
| 1777899852 | 18.89° C | 70% | 1011.3 hPa | 0 mm | - | 81 W/m² | - |
| 1777898338 | 18.33° C | 70% | 1011.6 hPa | 0 mm | - | 39 W/m² | - |
| 1777898036 | 18.33° C | 70% | 1011.4 hPa | 0 mm | - | 34 W/m² | - |
| 1777897731 | 17.78° C | 69% | 1011.3 hPa | 0 mm | - | 32 W/m² | - |
| 1777897428 | 17.78° C | 68% | 1011.3 hPa | 0 mm | - | 29 W/m² | - |
| 1777897124 | 17.78° C | 67% | 1011.3 hPa | 0 mm | - | 26 W/m² | - |
| 1777896820 | 17.78° C | 66% | 1011.3 hPa | 0 mm | - | 26 W/m² | - |
| 1777896518 | 17.78° C | 65% | 1011.2 hPa | 0 mm | - | 21 W/m² | - |
| 1777896215 | 17.78° C | 65% | 1011.1 hPa | 0 mm | - | 17 W/m² | - |
| 1777895913 | 17.78° C | 65% | 1011.2 hPa | 0 mm | - | 13 W/m² | - |
* Rain latest hour (hover to see other rain measurements)
** Current wind speed in m/s (hover to see current wind gust speed)